createdAt,value
2018-01-19T00:00:28.581Z,6.33
2018-01-19T00:01:28.903Z,6.33
2018-01-19T00:02:28.860Z,6.28
2018-01-19T00:03:28.846Z,6.33
2018-01-19T00:04:28.926Z,6.28
2018-01-19T00:05:28.637Z,6.35
2018-01-19T00:06:28.625Z,6.35
2018-01-19T00:07:28.931Z,6.27
2018-01-19T00:08:28.908Z,6.3
2018-01-19T00:09:28.368Z,6.36
2018-01-19T00:10:28.410Z,6.3
2018-01-19T00:11:28.964Z,6.3
2018-01-19T00:12:28.699Z,6.31
2018-01-19T00:13:28.965Z,6.26
2018-01-19T00:14:28.735Z,6.31
2018-01-19T00:15:29.048Z,6.28
2018-01-19T00:16:28.480Z,6.35
2018-01-19T00:17:28.779Z,6.33
2018-01-19T00:18:29.037Z,6.31
2018-01-19T00:19:29.057Z,6.36
2018-01-19T00:20:29.122Z,6.41
2018-01-19T00:21:29.071Z,6.36
2018-01-19T00:22:29.085Z,6.33
2018-01-19T00:23:28.534Z,6.33
2018-01-19T00:24:28.804Z,6.39
2018-01-19T00:25:28.804Z,6.33
2018-01-19T00:26:28.577Z,6.41
2018-01-19T00:27:28.888Z,6.33
2018-01-19T00:28:29.149Z,6.39
2018-01-19T00:29:29.169Z,6.36
2018-01-19T00:30:29.214Z,6.38
2018-01-19T00:31:28.623Z,6.35
2018-01-19T00:32:29.168Z,6.42
2018-01-19T00:33:28.893Z,6.38
2018-01-19T00:34:29.193Z,6.33
2018-01-19T00:35:29.198Z,6.31
2018-01-19T00:36:28.957Z,6.35
2018-01-19T00:37:29.261Z,6.39
2018-01-19T00:38:29.238Z,6.36
2018-01-19T00:39:28.709Z,6.38
2018-01-19T00:40:28.978Z,6.36
2018-01-19T00:41:28.987Z,6.33
2018-01-19T00:42:29.320Z,6.36
2018-01-19T00:43:29.033Z,6.33
2018-01-19T00:44:28.764Z,6.31
2018-01-19T00:45:29.335Z,6.33
2018-01-19T00:46:29.065Z,6.35
2018-01-19T00:47:29.330Z,6.36
2018-01-19T00:48:28.797Z,6.31
2018-01-19T00:49:28.810Z,6.39
2018-01-19T00:50:28.832Z,6.38
2018-01-19T00:51:29.123Z,6.35
2018-01-19T00:52:29.392Z,6.31
2018-01-19T00:53:29.155Z,6.38
2018-01-19T00:54:29.484Z,6.33
2018-01-19T00:55:29.197Z,6.39
2018-01-19T00:56:28.879Z,6.36
2018-01-19T00:57:29.482Z,6.33
2018-01-19T00:58:28.907Z,6.31
2018-01-19T00:59:29.246Z,6.31
2018-01-19T01:00:29.308Z,6.33
2018-01-19T01:01:29.014Z,6.36
2018-01-19T01:02:29.211Z,6.38
2018-01-19T01:03:29.268Z,6.36
2018-01-19T01:04:28.984Z,6.33
2018-01-19T01:05:29.308Z,6.31
2018-01-19T01:06:29.367Z,6.36
2018-01-19T01:07:29.606Z,6.31
2018-01-19T01:08:29.311Z,6.39
2018-01-19T01:09:29.323Z,6.33
2018-01-19T01:10:29.652Z,6.36
2018-01-19T01:11:29.710Z,6.31
2018-01-19T01:12:29.605Z,6.33
2018-01-19T01:13:29.407Z,6.33
2018-01-19T01:14:29.362Z,6.36
2018-01-19T01:15:29.387Z,6.36
2018-01-19T01:16:29.363Z,6.33
2018-01-19T01:17:29.699Z,6.3
2018-01-19T01:18:29.421Z,6.39
2018-01-19T01:19:29.150Z,6.33
2018-01-19T01:20:29.408Z,6.31
2018-01-19T01:21:29.465Z,6.33
2018-01-19T01:22:29.776Z,6.35
2018-01-19T01:23:29.771Z,6.31
2018-01-19T01:24:29.494Z,6.33
2018-01-19T01:25:29.484Z,6.44
2018-01-19T01:26:29.273Z,6.36
2018-01-19T01:27:29.509Z,6.35
2018-01-19T01:28:29.544Z,6.36
2018-01-19T01:29:29.825Z,6.38
2018-01-19T01:30:29.585Z,6.36
2018-01-19T01:31:29.920Z,6.36
2018-01-19T01:32:29.295Z,6.36
2018-01-19T01:33:29.876Z,6.41
2018-01-19T01:34:29.617Z,6.39
2018-01-19T01:35:29.635Z,6.33
2018-01-19T01:36:29.668Z,6.31
2018-01-19T01:37:29.616Z,6.38
2018-01-19T01:38:29.950Z,6.38
2018-01-19T01:39:29.682Z,6.39
2018-01-19T01:40:29.985Z,6.36
2018-01-19T01:41:29.703Z,6.36
2018-01-19T01:42:29.975Z,6.48
2018-01-19T01:43:29.697Z,6.44
2018-01-19T01:44:29.709Z,6.35
2018-01-19T01:45:29.747Z,6.46
2018-01-19T01:46:29.707Z,6.45
2018-01-19T01:47:29.757Z,6.49
2018-01-19T01:48:29.779Z,6.36
2018-01-19T01:49:29.764Z,6.51
2018-01-19T01:50:29.480Z,6.46
2018-01-19T01:51:30.066Z,6.46
2018-01-19T01:52:29.781Z,6.46
2018-01-19T01:53:29.814Z,6.49
2018-01-19T01:54:29.805Z,6.49
2018-01-19T01:55:29.825Z,6.44
2018-01-19T01:56:30.127Z,6.46
2018-01-19T01:57:29.858Z,6.49
2018-01-19T01:58:29.886Z,6.49
2018-01-19T01:59:29.578Z,6.57
2018-01-19T02:00:29.880Z,6.52
2018-01-19T02:01:29.870Z,6.51
2018-01-19T02:02:30.164Z,6.51
2018-01-19T02:03:30.213Z,6.51
2018-01-19T02:04:29.957Z,6.48
2018-01-19T02:05:29.950Z,6.54
2018-01-19T02:06:29.948Z,6.54
2018-01-19T02:07:29.949Z,6.54
2018-01-19T02:08:29.947Z,6.54
2018-01-19T02:09:30.264Z,6.52
2018-01-19T02:10:30.321Z,6.49
2018-01-19T02:11:30.332Z,6.52
2018-01-19T02:12:30.024Z,6.54
2018-01-19T02:13:31.408Z,6.59
2018-01-19T02:14:30.035Z,6.57
2018-01-19T02:15:30.082Z,6.56
2018-01-19T02:16:30.380Z,6.54
2018-01-19T02:17:30.085Z,6.51
2018-01-19T02:18:29.799Z,6.59
2018-01-19T02:19:30.113Z,6.57
2018-01-19T02:20:29.844Z,6.54
2018-01-19T02:21:30.133Z,6.56
2018-01-19T02:22:30.092Z,6.56
2018-01-19T02:23:30.426Z,6.52
2018-01-19T02:24:29.873Z,6.52
2018-01-19T02:25:30.167Z,6.59
2018-01-19T02:26:30.452Z,6.57
2018-01-19T02:27:29.900Z,6.6
2018-01-19T02:28:30.191Z,6.57
2018-01-19T02:29:30.182Z,6.51
2018-01-19T02:30:30.504Z,6.51
2018-01-19T02:31:30.195Z,6.59
2018-01-19T02:32:30.224Z,6.59
2018-01-19T02:33:30.542Z,6.48
2018-01-19T02:34:30.249Z,6.54
2018-01-19T02:35:29.981Z,6.56
2018-01-19T02:36:30.026Z,6.54
2018-01-19T02:37:30.271Z,6.56
2018-01-19T02:38:30.308Z,6.57
2018-01-19T02:39:30.023Z,6.59
2018-01-19T02:40:30.610Z,6.57
2018-01-19T02:41:30.684Z,6.57
2018-01-19T02:42:30.358Z,6.54
2018-01-19T02:43:30.072Z,6.54
2018-01-19T02:44:30.380Z,6.59
2018-01-19T02:45:30.408Z,6.56
2018-01-19T02:46:30.410Z,6.57
2018-01-19T02:47:30.418Z,6.52
2018-01-19T02:48:30.717Z,6.52
2018-01-19T02:49:30.428Z,6.56
2018-01-19T02:50:30.420Z,6.57
2018-01-19T02:51:30.726Z,6.56
2018-01-19T02:52:30.447Z,6.51
2018-01-19T02:53:30.506Z,6.6
2018-01-19T02:54:30.195Z,6.57
2018-01-19T02:55:30.460Z,6.62
2018-01-19T02:56:30.524Z,6.59
2018-01-19T02:57:30.635Z,6.57
2018-01-19T02:58:30.823Z,6.56
2018-01-19T02:59:30.813Z,6.59
2018-01-19T03:00:30.525Z,6.6
2018-01-19T03:01:31.201Z,6.51
2018-01-19T03:02:30.257Z,6.52
2018-01-19T03:03:30.868Z,6.59
2018-01-19T03:04:30.933Z,6.46
2018-01-19T03:05:30.896Z,6.52
2018-01-19T03:06:30.353Z,6.56
2018-01-19T03:07:30.647Z,6.59
2018-01-19T03:08:30.884Z,6.56
2018-01-19T03:09:30.671Z,6.59
2018-01-19T03:10:30.679Z,6.56
2018-01-19T03:11:30.680Z,6.51
2018-01-19T03:12:30.401Z,6.56
2018-01-19T03:13:30.435Z,6.57
2018-01-19T03:14:30.718Z,6.59
2018-01-19T03:15:30.715Z,6.51
2018-01-19T03:16:30.726Z,6.54
2018-01-19T03:17:30.755Z,6.51
2018-01-19T03:18:31.198Z,6.48
2018-01-19T03:19:30.746Z,6.46
2018-01-19T03:20:30.489Z,6.51
2018-01-19T03:21:30.509Z,6.48
2018-01-19T03:22:31.103Z,6.49
2018-01-19T03:23:30.783Z,6.48
2018-01-19T03:24:30.802Z,6.46
2018-01-19T03:25:30.833Z,6.45
2018-01-19T03:26:30.827Z,6.45
2018-01-19T03:27:31.171Z,6.51
2018-01-19T03:28:30.847Z,6.46
2018-01-19T03:29:30.899Z,6.49
2018-01-19T03:30:31.166Z,6.48
2018-01-19T03:31:31.223Z,6.36
2018-01-19T03:32:31.157Z,6.3
2018-01-19T03:33:31.213Z,6.31
2018-01-19T03:34:30.922Z,6.33
2018-01-19T03:35:31.275Z,6.35
2018-01-19T03:36:30.653Z,6.33
2018-01-19T03:37:30.971Z,6.35
2018-01-19T03:38:31.936Z,6.38
2018-01-19T03:39:30.982Z,6.39
2018-01-19T03:40:31.076Z,6.39
2018-01-19T03:41:30.968Z,6.39
2018-01-19T03:42:31.308Z,6.31
2018-01-19T03:43:31.393Z,6.36
2018-01-19T03:44:31.004Z,6.39
2018-01-19T03:45:31.334Z,6.39
2018-01-19T03:46:30.777Z,6.36
2018-01-19T03:47:30.816Z,6.33
2018-01-19T03:48:31.428Z,6.36
2018-01-19T03:49:31.379Z,6.33
2018-01-19T03:50:31.352Z,6.36
2018-01-19T03:51:31.099Z,6.36
2018-01-19T03:52:31.133Z,6.3
2018-01-19T03:53:31.100Z,6.39
2018-01-19T03:54:31.403Z,6.36
2018-01-19T03:55:30.875Z,6.35
2018-01-19T03:56:30.865Z,6.31
2018-01-19T03:57:31.508Z,6.36
2018-01-19T03:58:31.187Z,6.3
2018-01-19T03:59:30.887Z,6.31
2018-01-19T04:00:31.203Z,6.36
2018-01-19T04:01:31.226Z,6.31
2018-01-19T04:02:31.210Z,6.35
2018-01-19T04:03:30.952Z,6.36
2018-01-19T04:04:31.542Z,6.36
2018-01-19T04:05:31.552Z,6.41
2018-01-19T04:06:31.300Z,6.35
2018-01-19T04:07:31.263Z,6.36
2018-01-19T04:08:31.016Z,6.36
2018-01-19T04:09:31.585Z,6.36
2018-01-19T04:10:31.309Z,6.36
2018-01-19T04:11:31.310Z,6.33
2018-01-19T04:12:31.084Z,6.33
2018-01-19T04:13:31.352Z,6.33
2018-01-19T04:14:31.418Z,6.42
2018-01-19T04:15:31.093Z,6.33
2018-01-19T04:16:31.669Z,6.39
2018-01-19T04:17:31.429Z,6.36
2018-01-19T04:18:31.689Z,6.45
2018-01-19T04:19:31.396Z,6.51
2018-01-19T04:20:31.408Z,6.49
2018-01-19T04:21:31.461Z,6.49
2018-01-19T04:22:31.763Z,6.45
2018-01-19T04:23:31.755Z,6.42
2018-01-19T04:24:31.728Z,6.48
2018-01-19T04:25:31.924Z,6.51
2018-01-19T04:26:31.206Z,6.48
2018-01-19T04:27:31.527Z,6.46
2018-01-19T04:28:31.549Z,6.42
2018-01-19T04:29:31.792Z,6.52
2018-01-19T04:30:31.854Z,6.49
2018-01-19T04:31:31.592Z,6.51
2018-01-19T04:32:31.273Z,6.46
2018-01-19T04:33:31.287Z,6.52
2018-01-19T04:34:31.298Z,6.46
2018-01-19T04:35:31.305Z,6.49
2018-01-19T04:36:31.337Z,6.51
2018-01-19T04:37:31.339Z,6.45
2018-01-19T04:38:31.629Z,6.56
2018-01-19T04:39:31.930Z,6.57
2018-01-19T04:40:31.975Z,6.52
2018-01-19T04:41:31.990Z,6.54
2018-01-19T04:42:31.387Z,6.56
2018-01-19T04:43:32.004Z,6.48
2018-01-19T04:44:31.663Z,6.54
2018-01-19T04:45:31.684Z,6.54
2018-01-19T04:46:32.001Z,6.57
2018-01-19T04:47:32.007Z,6.57
2018-01-19T04:48:31.428Z,6.59
2018-01-19T04:49:32.044Z,6.49
2018-01-19T04:50:31.491Z,6.51
2018-01-19T04:51:32.051Z,6.59
2018-01-19T04:52:31.796Z,6.59
2018-01-19T04:53:32.085Z,6.57
2018-01-19T04:54:31.774Z,6.56
2018-01-19T04:55:31.847Z,6.56
2018-01-19T04:56:32.119Z,6.62
2018-01-19T04:57:31.849Z,6.57
2018-01-19T04:58:31.816Z,6.54
2018-01-19T04:59:31.828Z,6.6
2018-01-19T05:00:31.580Z,6.56
2018-01-19T05:01:31.594Z,6.51
2018-01-19T05:02:31.903Z,6.54
2018-01-19T05:03:31.906Z,6.54
2018-01-19T05:04:31.885Z,6.54
2018-01-19T05:05:32.273Z,6.52
2018-01-19T05:06:31.949Z,6.54
2018-01-19T05:07:31.660Z,6.48
2018-01-19T05:08:31.994Z,6.54
2018-01-19T05:09:31.988Z,6.56
2018-01-19T05:10:32.369Z,6.63
2018-01-19T05:11:31.704Z,6.57
2018-01-19T05:12:32.003Z,6.56
2018-01-19T05:13:32.028Z,6.51
2018-01-19T05:14:32.270Z,6.57
2018-01-19T05:15:32.029Z,6.48
2018-01-19T05:16:32.294Z,6.57
2018-01-19T05:17:32.308Z,6.48
2018-01-19T05:18:32.259Z,6.59
2018-01-19T05:19:32.079Z,6.57
2018-01-19T05:20:32.381Z,6.56
2018-01-19T05:21:32.096Z,6.59
2018-01-19T05:22:32.372Z,6.56
2018-01-19T05:23:32.416Z,6.63
2018-01-19T05:24:31.844Z,6.49
2018-01-19T05:25:32.305Z,6.57
2018-01-19T05:26:32.467Z,6.57
2018-01-19T05:27:32.178Z,6.49
2018-01-19T05:28:32.212Z,6.59
2018-01-19T05:29:32.500Z,6.54
2018-01-19T05:30:32.474Z,6.52
2018-01-19T05:31:32.245Z,6.6
2018-01-19T05:32:31.955Z,6.56
2018-01-19T05:33:32.216Z,6.59
2018-01-19T05:34:31.957Z,6.6
2018-01-19T05:35:32.581Z,6.59
2018-01-19T05:36:32.550Z,6.56
2018-01-19T05:37:32.570Z,6.63
2018-01-19T05:38:31.981Z,6.52
2018-01-19T05:39:32.034Z,6.6
2018-01-19T05:40:32.183Z,6.48
2018-01-19T05:41:32.014Z,6.57
2018-01-19T05:42:32.657Z,6.57
2018-01-19T05:43:32.365Z,6.63
2018-01-19T05:44:32.420Z,6.49
2018-01-19T05:45:32.066Z,6.51
2018-01-19T05:46:32.372Z,6.52
2018-01-19T05:47:32.670Z,6.57
2018-01-19T05:48:32.383Z,6.52
2018-01-19T05:49:32.410Z,6.6
2018-01-19T05:50:32.526Z,6.54
2018-01-19T05:51:32.403Z,6.56
2018-01-19T05:52:32.154Z,6.57
2018-01-19T05:53:32.770Z,6.57
2018-01-19T05:54:32.435Z,6.54
2018-01-19T05:55:32.545Z,6.59
2018-01-19T05:56:32.482Z,6.44
2018-01-19T05:57:32.770Z,6.56
2018-01-19T05:58:32.822Z,6.56
2018-01-19T05:59:32.243Z,6.62
2018-01-19T06:00:32.243Z,6.45
2018-01-19T06:01:32.843Z,6.57
2018-01-19T06:02:32.546Z,6.62
2018-01-19T06:03:32.865Z,6.49
2018-01-19T06:04:32.576Z,6.56
2018-01-19T06:05:32.680Z,6.57
2018-01-19T06:06:32.595Z,6.51
2018-01-19T06:07:32.652Z,6.57
2018-01-19T06:08:32.913Z,6.54
2018-01-19T06:09:32.646Z,6.57
2018-01-19T06:10:32.671Z,6.56
2018-01-19T06:11:32.396Z,6.51
2018-01-19T06:12:32.948Z,6.54
2018-01-19T06:13:32.957Z,6.57
2018-01-19T06:14:33.029Z,6.56
2018-01-19T06:15:32.753Z,6.54
2018-01-19T06:16:33.004Z,6.54
2018-01-19T06:17:32.759Z,6.52
2018-01-19T06:18:32.745Z,6.48
2018-01-19T06:19:33.070Z,6.56
2018-01-19T06:20:32.756Z,6.52
2018-01-19T06:21:32.479Z,6.63
2018-01-19T06:22:32.474Z,6.52
2018-01-19T06:23:32.507Z,6.54
2018-01-19T06:24:32.767Z,6.57
2018-01-19T06:25:32.563Z,6.51
2018-01-19T06:26:32.542Z,6.51
2018-01-19T06:27:32.832Z,6.52
2018-01-19T06:28:32.556Z,6.49
2018-01-19T06:29:32.566Z,6.54
2018-01-19T06:30:32.887Z,6.54
2018-01-19T06:31:32.865Z,6.54
2018-01-19T06:32:32.859Z,6.54
2018-01-19T06:33:33.225Z,6.54
2018-01-19T06:34:32.619Z,6.57
2018-01-19T06:35:32.939Z,6.54
2018-01-19T06:36:32.965Z,6.54
2018-01-19T06:37:33.268Z,6.52
2018-01-19T06:38:32.955Z,6.56
2018-01-19T06:39:33.293Z,6.46
2018-01-19T06:40:33.263Z,6.51
2018-01-19T06:41:32.675Z,6.57
2018-01-19T06:42:32.969Z,6.56
2018-01-19T06:43:33.325Z,6.54
2018-01-19T06:44:33.302Z,6.56
2018-01-19T06:45:33.022Z,6.54
2018-01-19T06:46:33.056Z,6.57
2018-01-19T06:47:33.022Z,6.54
2018-01-19T06:48:32.775Z,6.57
2018-01-19T06:49:33.397Z,6.54
2018-01-19T06:50:32.806Z,6.51
2018-01-19T06:51:32.818Z,6.54
2018-01-19T06:52:33.083Z,6.59
2018-01-19T06:53:32.815Z,6.49
2018-01-19T06:54:33.429Z,6.59
2018-01-19T06:55:33.120Z,6.56
2018-01-19T06:56:33.136Z,6.48
2018-01-19T06:57:32.906Z,6.54
2018-01-19T06:58:33.170Z,6.54
2018-01-19T06:59:32.875Z,6.51
2018-01-19T07:00:33.516Z,6.48
2018-01-19T07:01:33.491Z,6.52
2018-01-19T07:02:32.941Z,6.56
2018-01-19T07:03:33.520Z,6.54
2018-01-19T07:04:33.245Z,6.57
2018-01-19T07:05:32.974Z,6.52
2018-01-19T07:06:33.420Z,6.49
2018-01-19T07:07:33.006Z,6.49
2018-01-19T07:08:33.586Z,6.52
2018-01-19T07:09:33.307Z,6.59
2018-01-19T07:10:33.310Z,6.52
2018-01-19T07:11:33.369Z,6.6
2018-01-19T07:12:33.324Z,6.48
2018-01-19T07:13:33.050Z,6.51
2018-01-19T07:14:33.642Z,6.49
2018-01-19T07:15:33.658Z,6.56
2018-01-19T07:16:33.105Z,6.59
2018-01-19T07:17:33.634Z,6.46
2018-01-19T07:18:33.428Z,6.54
2018-01-19T07:19:33.128Z,6.52
2018-01-19T07:20:33.403Z,6.56
2018-01-19T07:21:33.444Z,6.57
2018-01-19T07:22:33.410Z,6.63
2018-01-19T07:23:33.704Z,6.56
2018-01-19T07:24:33.713Z,6.59
2018-01-19T07:25:33.473Z,6.51
2018-01-19T07:26:33.486Z,6.56
2018-01-19T07:27:33.505Z,6.49
2018-01-19T07:28:33.496Z,6.6
2018-01-19T07:29:33.797Z,6.63
2018-01-19T07:30:33.249Z,6.6
2018-01-19T07:31:33.837Z,6.54
2018-01-19T07:32:33.862Z,6.62
2018-01-19T07:33:33.553Z,6.52
2018-01-19T07:34:33.859Z,6.49
2018-01-19T07:35:33.584Z,6.6
2018-01-19T07:36:33.678Z,6.62
2018-01-19T07:37:33.608Z,6.57
2018-01-19T07:38:33.618Z,6.64
2018-01-19T07:39:33.347Z,6.66
2018-01-19T07:40:33.686Z,6.59
2018-01-19T07:41:33.718Z,6.69
2018-01-19T07:42:33.643Z,6.64
2018-01-19T07:43:33.673Z,6.6
2018-01-19T07:44:33.716Z,6.64
2018-01-19T07:45:33.718Z,6.57
2018-01-19T07:46:33.767Z,6.57
2018-01-19T07:47:33.999Z,6.67
2018-01-19T07:48:33.994Z,6.63
2018-01-19T07:49:34.062Z,6.62
2018-01-19T07:50:34.040Z,6.49
2018-01-19T07:51:34.132Z,6.67
2018-01-19T07:52:33.796Z,6.72
2018-01-19T07:53:34.112Z,6.7
2018-01-19T07:54:34.091Z,6.64
2018-01-19T07:55:33.810Z,6.59
2018-01-19T07:56:33.871Z,6.66
2018-01-19T07:57:33.799Z,6.63
2018-01-19T07:58:33.833Z,6.56
2018-01-19T07:59:33.837Z,6.62
2018-01-19T08:00:33.865Z,6.62
2018-01-19T08:01:33.890Z,6.6
2018-01-19T08:02:33.885Z,6.69
2018-01-19T08:03:34.221Z,6.6
2018-01-19T08:04:34.198Z,6.67
2018-01-19T08:05:33.918Z,6.74
2018-01-19T08:06:33.967Z,6.72
2018-01-19T08:07:33.953Z,6.75
2018-01-19T08:08:33.990Z,6.67
2018-01-19T08:09:33.966Z,6.67
2018-01-19T08:10:33.953Z,6.7
2018-01-19T08:11:33.987Z,6.67
2018-01-19T08:12:34.279Z,6.75
2018-01-19T08:13:33.730Z,6.7
2018-01-19T08:14:34.000Z,6.78
2018-01-19T08:15:34.354Z,6.78
2018-01-19T08:16:34.364Z,6.81
2018-01-19T08:17:33.740Z,6.82
2018-01-19T08:18:34.358Z,6.84
2018-01-19T08:19:34.067Z,6.84
2018-01-19T08:20:34.086Z,6.87
2018-01-19T08:21:34.140Z,6.88
2018-01-19T08:22:34.116Z,6.95
2018-01-19T08:23:34.131Z,6.92
2018-01-19T08:24:34.415Z,6.88
2018-01-19T08:25:34.151Z,7.03
2018-01-19T08:26:34.498Z,7.03
2018-01-19T08:27:34.153Z,7.03
2018-01-19T08:28:34.148Z,7.05
2018-01-19T08:29:34.157Z,7.13
2018-01-19T08:30:34.524Z,7.17
2018-01-19T08:31:34.232Z,7.1
2018-01-19T08:32:34.256Z,7.17
2018-01-19T08:33:34.244Z,7.15
2018-01-19T08:34:34.214Z,7.15
2018-01-19T08:35:34.280Z,7.14
2018-01-19T08:36:34.545Z,7.18
2018-01-19T08:37:34.065Z,7.2
2018-01-19T08:38:34.568Z,7.21
2018-01-19T08:39:34.009Z,7.29
2018-01-19T08:40:34.013Z,7.31
2018-01-19T08:41:34.366Z,7.35
2018-01-19T08:42:34.044Z,7.28
2018-01-19T08:43:34.342Z,7.28
2018-01-19T08:44:34.663Z,7.29
2018-01-19T08:45:34.112Z,7.36
2018-01-19T08:46:34.380Z,7.28
2018-01-19T08:47:34.141Z,7.28
2018-01-19T08:48:34.094Z,7.32
2018-01-19T08:49:34.426Z,7.32
2018-01-19T08:50:34.682Z,7.35
2018-01-19T08:51:34.136Z,7.29
2018-01-19T08:52:34.161Z,7.35
2018-01-19T08:53:34.467Z,7.32
2018-01-19T08:54:34.474Z,7.31
2018-01-19T08:55:34.496Z,7.25
2018-01-19T08:56:34.228Z,7.24
2018-01-19T08:57:34.521Z,7.24
2018-01-19T08:58:34.243Z,7.33
2018-01-19T08:59:34.843Z,7.32
2018-01-19T09:00:34.563Z,7.31
2018-01-19T09:01:34.848Z,7.31
2018-01-19T09:02:34.288Z,7.31
2018-01-19T09:03:34.321Z,7.32
2018-01-19T09:04:34.611Z,7.32
2018-01-19T09:05:34.575Z,7.33
2018-01-19T09:06:34.318Z,7.31
2018-01-19T09:07:34.665Z,7.33
2018-01-19T09:08:34.642Z,7.32
2018-01-19T09:09:34.358Z,7.24
2018-01-19T09:10:34.636Z,7.35
2018-01-19T09:11:34.933Z,7.28
2018-01-19T09:12:34.686Z,7.35
2018-01-19T09:13:34.674Z,7.36
2018-01-19T09:14:34.955Z,7.38
2018-01-19T09:15:34.752Z,7.38
2018-01-19T09:16:34.700Z,7.45
2018-01-19T09:17:34.720Z,7.47
2018-01-19T09:18:34.752Z,7.5
2018-01-19T09:19:35.059Z,7.4
2018-01-19T09:20:34.761Z,7.45
2018-01-19T09:21:34.529Z,7.43
2018-01-19T09:22:35.080Z,7.43
2018-01-19T09:23:35.073Z,7.45
2018-01-19T09:24:34.813Z,7.43
2018-01-19T09:25:35.157Z,7.4
2018-01-19T09:26:34.818Z,7.47
2018-01-19T09:27:35.160Z,7.39
2018-01-19T09:28:34.871Z,7.42
2018-01-19T09:29:34.852Z,7.48
2018-01-19T09:30:34.912Z,7.51
2018-01-19T09:31:34.894Z,7.48
2018-01-19T09:32:34.954Z,7.51
2018-01-19T09:33:34.928Z,7.47
2018-01-19T09:34:34.930Z,7.51
2018-01-19T09:35:34.963Z,7.51
2018-01-19T09:36:35.256Z,7.56
2018-01-19T09:37:35.258Z,7.66
2018-01-19T09:38:35.247Z,7.58
2018-01-19T09:39:35.313Z,7.6
2018-01-19T09:40:34.742Z,7.58
2018-01-19T09:41:35.004Z,7.66
2018-01-19T09:42:35.084Z,7.72
2018-01-19T09:43:34.755Z,7.69
2018-01-19T09:44:34.789Z,7.73
2018-01-19T09:45:35.052Z,7.69
2018-01-19T09:46:35.064Z,7.69
2018-01-19T09:47:35.157Z,7.73
2018-01-19T09:48:35.097Z,7.67
2018-01-19T09:49:35.377Z,7.73
2018-01-19T09:50:35.487Z,7.77
2018-01-19T09:51:34.828Z,7.75
2018-01-19T09:52:35.432Z,7.82
2018-01-19T09:53:34.897Z,7.83
2018-01-19T09:54:35.213Z,7.77
2018-01-19T09:55:34.879Z,7.85
2018-01-19T09:56:35.189Z,7.8
2018-01-19T09:57:35.575Z,7.82
2018-01-19T09:58:35.192Z,7.8
2018-01-19T09:59:35.497Z,7.76
2018-01-19T10:00:35.248Z,7.72
2018-01-19T10:01:35.588Z,7.76
2018-01-19T10:02:35.329Z,7.77
2018-01-19T10:03:35.292Z,7.67
2018-01-19T10:04:35.287Z,7.73
2018-01-19T10:05:35.289Z,7.69
2018-01-19T10:06:35.302Z,7.72
2018-01-19T10:07:35.357Z,7.73
2018-01-19T10:08:35.057Z,7.69
2018-01-19T10:09:35.079Z,7.69
2018-01-19T10:10:35.401Z,7.73
2018-01-19T10:11:35.352Z,7.75
2018-01-19T10:12:35.702Z,7.77
2018-01-19T10:13:35.459Z,7.76
2018-01-19T10:14:35.426Z,7.72
2018-01-19T10:15:35.164Z,7.69
2018-01-19T10:16:35.176Z,7.77
2018-01-19T10:17:35.494Z,7.75
2018-01-19T10:18:35.470Z,7.83
2018-01-19T10:19:35.816Z,7.75
2018-01-19T10:20:35.790Z,7.75
2018-01-19T10:21:35.234Z,7.79
2018-01-19T10:22:35.894Z,7.77
2018-01-19T10:23:35.826Z,7.85
2018-01-19T10:24:35.535Z,7.79
2018-01-19T10:25:35.551Z,7.73
2018-01-19T10:26:35.562Z,7.77
2018-01-19T10:27:35.336Z,7.8
2018-01-19T10:28:35.562Z,7.79
2018-01-19T10:29:35.606Z,7.8
2018-01-19T10:30:35.591Z,7.95
2018-01-19T10:31:35.906Z,7.9
2018-01-19T10:32:35.707Z,7.8
2018-01-19T10:33:35.680Z,7.95
2018-01-19T10:34:35.627Z,7.93
2018-01-19T10:35:35.960Z,7.94
2018-01-19T10:36:35.687Z,7.91
2018-01-19T10:37:35.944Z,8.03
2018-01-19T10:38:35.991Z,7.98
2018-01-19T10:39:35.728Z,8.01
2018-01-19T10:40:35.430Z,7.98
2018-01-19T10:41:35.430Z,8.01
2018-01-19T10:42:35.796Z,8.01
2018-01-19T10:43:35.487Z,7.93
2018-01-19T10:44:35.761Z,8.05
2018-01-19T10:45:36.087Z,7.98
2018-01-19T10:46:35.496Z,8.09
2018-01-19T10:47:35.810Z,8.1
2018-01-19T10:48:35.816Z,8.01
2018-01-19T10:49:35.870Z,8.06
2018-01-19T10:50:35.560Z,8.09
2018-01-19T10:51:35.864Z,8.05
2018-01-19T10:52:36.048Z,8.05
2018-01-19T10:53:35.616Z,8.09
2018-01-19T10:54:35.677Z,8.09
2018-01-19T10:55:36.194Z,8.09
2018-01-19T10:56:36.246Z,8.13
2018-01-19T10:57:35.646Z,8.15
2018-01-19T10:58:35.679Z,8.19
2018-01-19T10:59:35.974Z,8.2
2018-01-19T11:00:36.239Z,8.23
2018-01-19T11:01:35.734Z,8.23
2018-01-19T11:02:35.988Z,8.18
2018-01-19T11:03:36.012Z,8.24
2018-01-19T11:04:36.034Z,8.24
2018-01-19T11:05:36.340Z,8.18
2018-01-19T11:06:36.342Z,8.33
2018-01-19T11:07:36.066Z,8.34
2018-01-19T11:08:36.041Z,8.37
2018-01-19T11:09:35.858Z,8.36
2018-01-19T11:10:36.099Z,8.33
2018-01-19T11:11:35.819Z,8.28
2018-01-19T11:12:36.126Z,8.31
2018-01-19T11:13:35.877Z,8.46
2018-01-19T11:14:35.856Z,8.49
2018-01-19T11:15:36.149Z,8.42
2018-01-19T11:16:36.140Z,8.53
2018-01-19T11:17:36.219Z,8.55
2018-01-19T11:18:36.203Z,8.48
2018-01-19T11:19:36.277Z,8.52
2018-01-19T11:20:35.966Z,8.48
2018-01-19T11:21:36.244Z,8.6
2018-01-19T11:22:35.957Z,8.51
2018-01-19T11:23:36.549Z,8.52
2018-01-19T11:24:36.269Z,8.53
2018-01-19T11:25:36.563Z,8.61
2018-01-19T11:26:36.267Z,8.64
2018-01-19T11:27:36.036Z,8.64
2018-01-19T11:28:36.599Z,8.73
2018-01-19T11:29:36.336Z,8.71
2018-01-19T11:30:36.367Z,8.66
2018-01-19T11:31:36.049Z,8.67
2018-01-19T11:32:36.402Z,8.76
2018-01-19T11:33:36.385Z,8.69
2018-01-19T11:34:36.117Z,8.69
2018-01-19T11:35:36.377Z,8.7
2018-01-19T11:36:36.152Z,8.69
2018-01-19T11:37:36.135Z,8.7
2018-01-19T11:38:36.709Z,8.73
2018-01-19T11:39:36.207Z,8.78
2018-01-19T11:40:36.775Z,8.69
2018-01-19T11:41:36.480Z,8.7
2018-01-19T11:42:36.819Z,8.82
2018-01-19T11:43:36.523Z,8.78
2018-01-19T11:44:36.520Z,8.71
2018-01-19T11:45:36.818Z,8.81
2018-01-19T11:46:36.538Z,8.76
2018-01-19T11:47:36.809Z,8.81
2018-01-19T11:48:36.586Z,8.81
2018-01-19T11:49:36.847Z,8.74
2018-01-19T11:50:36.609Z,8.81
2018-01-19T11:51:36.620Z,8.79
2018-01-19T11:52:36.602Z,8.76
2018-01-19T11:53:36.617Z,8.81
2018-01-19T11:54:36.680Z,8.76
2018-01-19T11:55:36.662Z,8.79
2018-01-19T11:56:36.667Z,8.84
2018-01-19T11:57:36.972Z,8.82
2018-01-19T11:58:37.018Z,8.84
2018-01-19T11:59:36.693Z,8.76
2018-01-19T12:00:36.477Z,8.79
2018-01-19T12:01:37.065Z,8.76
2018-01-19T12:02:36.764Z,8.87
2018-01-19T12:03:36.856Z,8.79
2018-01-19T12:04:36.488Z,8.76
2018-01-19T12:05:37.083Z,8.84
2018-01-19T12:06:36.801Z,8.79
2018-01-19T12:07:36.539Z,8.79
2018-01-19T12:08:36.853Z,8.81
2018-01-19T12:09:37.122Z,8.81
2018-01-19T12:10:36.861Z,8.87
2018-01-19T12:11:36.899Z,8.81
2018-01-19T12:12:36.904Z,8.79
2018-01-19T12:13:36.677Z,8.84
2018-01-19T12:14:37.223Z,8.85
2018-01-19T12:15:37.169Z,8.82
2018-01-19T12:16:36.931Z,8.91
2018-01-19T12:17:37.257Z,8.89
2018-01-19T12:18:36.968Z,8.89
2018-01-19T12:19:36.996Z,8.95
2018-01-19T12:20:37.312Z,8.87
2018-01-19T12:21:37.289Z,8.84
2018-01-19T12:22:36.724Z,8.97
2018-01-19T12:23:37.054Z,8.99
2018-01-19T12:24:37.070Z,9.04
2018-01-19T12:25:37.336Z,9.02
2018-01-19T12:26:36.787Z,9.14
2018-01-19T12:27:37.080Z,9.1
2018-01-19T12:28:37.068Z,9.13
2018-01-19T12:29:36.826Z,9.14
2018-01-19T12:30:37.122Z,9.14
2018-01-19T12:31:37.153Z,9.19
2018-01-19T12:32:37.391Z,9.26
2018-01-19T12:33:36.902Z,9.22
2018-01-19T12:34:36.889Z,9.23
2018-01-19T12:35:37.459Z,9.19
2018-01-19T12:36:36.916Z,9.21
2018-01-19T12:37:37.500Z,9.26
2018-01-19T12:38:37.552Z,9.25
2018-01-19T12:39:37.555Z,9.25
2018-01-19T12:40:37.509Z,9.19
2018-01-19T12:41:37.264Z,9.19
2018-01-19T12:42:37.305Z,9.16
2018-01-19T12:43:37.345Z,9.14
2018-01-19T12:44:37.338Z,9.14
2018-01-19T12:45:37.640Z,9.19
2018-01-19T12:46:37.338Z,9.13
2018-01-19T12:47:37.355Z,9.14
2018-01-19T12:48:37.375Z,9.14
2018-01-19T12:49:37.390Z,9.1
2018-01-19T12:50:37.106Z,9.08
2018-01-19T12:51:37.125Z,9.11
2018-01-19T12:52:37.415Z,9.13
2018-01-19T12:53:37.167Z,9.11
2018-01-19T12:54:37.755Z,9.1
2018-01-19T12:55:37.167Z,9.08
2018-01-19T12:56:37.453Z,9.03
2018-01-19T12:57:37.179Z,9.06
2018-01-19T12:58:37.573Z,8.99
2018-01-19T12:59:37.777Z,9.14
2018-01-19T13:00:37.231Z,9.06
2018-01-19T13:01:37.272Z,9.02
2018-01-19T13:02:37.798Z,9.03
2018-01-19T13:03:37.913Z,9
2018-01-19T13:04:37.270Z,9.04
2018-01-19T13:05:37.559Z,9
2018-01-19T13:06:37.892Z,8.97
2018-01-19T13:07:37.583Z,9.02
2018-01-19T13:08:37.373Z,8.95
2018-01-19T13:09:37.642Z,8.94
2018-01-19T13:10:37.967Z,9
2018-01-19T13:11:37.397Z,9
2018-01-19T13:12:37.370Z,8.94
2018-01-19T13:13:37.670Z,8.97
2018-01-19T13:14:37.728Z,8.95
2018-01-19T13:15:37.710Z,9.04
2018-01-19T13:16:37.429Z,8.94
2018-01-19T13:17:37.445Z,8.94
2018-01-19T13:18:37.747Z,9
2018-01-19T13:19:37.772Z,9
2018-01-19T13:20:37.799Z,8.95